sensor_id;sensor_type;location;lat;lon;timestamp;P1;durP1;ratioP1;P2;durP2;ratioP2
55316;SDS011;41178;48.956;8.130;2023-10-19T00:03:17;14.13;;;11.87;;
55316;SDS011;41178;48.956;8.130;2023-10-19T00:08:20;18.13;;;14.53;;
55316;SDS011;41178;48.956;8.130;2023-10-19T00:13:22;18.77;;;14.13;;
55316;SDS011;41178;48.956;8.130;2023-10-19T00:18:24;26.40;;;18.63;;
55316;SDS011;41178;48.956;8.130;2023-10-19T00:23:26;19.63;;;15.33;;
55316;SDS011;41178;48.956;8.130;2023-10-19T00:28:31;16.93;;;13.73;;
55316;SDS011;41178;48.956;8.130;2023-10-19T00:33:37;16.67;;;12.77;;
55316;SDS011;41178;48.956;8.130;2023-10-19T00:38:42;17.30;;;13.97;;
55316;SDS011;41178;48.956;8.130;2023-10-19T00:43:52;16.50;;;12.77;;
55316;SDS011;41178;48.956;8.130;2023-10-19T00:49:05;15.97;;;12.73;;
55316;SDS011;41178;48.956;8.130;2023-10-19T00:54:15;16.97;;;13.33;;
55316;SDS011;41178;48.956;8.130;2023-10-19T00:59:27;20.30;;;13.83;;
55316;SDS011;41178;48.956;8.130;2023-10-19T01:04:36;18.60;;;13.80;;
55316;SDS011;41178;48.956;8.130;2023-10-19T01:09:42;17.27;;;13.20;;
55316;SDS011;41178;48.956;8.130;2023-10-19T01:14:45;15.77;;;12.20;;
55316;SDS011;41178;48.956;8.130;2023-10-19T01:20:01;17.63;;;13.20;;
55316;SDS011;41178;48.956;8.130;2023-10-19T01:25:13;15.37;;;12.20;;
55316;SDS011;41178;48.956;8.130;2023-10-19T01:30:21;16.40;;;12.23;;
55316;SDS011;41178;48.956;8.130;2023-10-19T01:35:23;14.87;;;11.53;;
55316;SDS011;41178;48.956;8.130;2023-10-19T01:40:25;15.63;;;12.00;;
55316;SDS011;41178;48.956;8.130;2023-10-19T01:45:35;15.13;;;12.90;;
55316;SDS011;41178;48.956;8.130;2023-10-19T01:50:37;19.43;;;12.40;;
55316;SDS011;41178;48.956;8.130;2023-10-19T01:55:42;17.17;;;13.10;;
55316;SDS011;41178;48.956;8.130;2023-10-19T02:00:45;15.40;;;12.67;;
55316;SDS011;41178;48.956;8.130;2023-10-19T02:05:46;16.43;;;12.93;;
55316;SDS011;41178;48.956;8.130;2023-10-19T02:10:50;19.00;;;12.80;;
55316;SDS011;41178;48.956;8.130;2023-10-19T02:15:52;18.90;;;13.10;;
55316;SDS011;41178;48.956;8.130;2023-10-19T02:20:54;15.87;;;12.33;;
55316;SDS011;41178;48.956;8.130;2023-10-19T02:25:57;17.37;;;12.97;;
55316;SDS011;41178;48.956;8.130;2023-10-19T02:30:59;18.63;;;13.07;;
55316;SDS011;41178;48.956;8.130;2023-10-19T02:36:13;18.13;;;13.13;;
55316;SDS011;41178;48.956;8.130;2023-10-19T02:41:17;20.57;;;13.37;;
55316;SDS011;41178;48.956;8.130;2023-10-19T02:46:21;15.30;;;11.90;;
55316;SDS011;41178;48.956;8.130;2023-10-19T02:51:22;17.00;;;12.40;;
55316;SDS011;41178;48.956;8.130;2023-10-19T02:56:24;18.20;;;12.63;;
55316;SDS011;41178;48.956;8.130;2023-10-19T03:01:26;17.27;;;12.23;;
55316;SDS011;41178;48.956;8.130;2023-10-19T03:06:31;16.13;;;11.67;;
55316;SDS011;41178;48.956;8.130;2023-10-19T03:11:34;13.47;;;11.17;;
55316;SDS011;41178;48.956;8.130;2023-10-19T03:16:36;16.77;;;11.90;;
55316;SDS011;41178;48.956;8.130;2023-10-19T03:21:39;16.67;;;11.37;;
55316;SDS011;41178;48.956;8.130;2023-10-19T03:26:44;18.00;;;10.87;;
55316;SDS011;41178;48.956;8.130;2023-10-19T03:31:50;14.90;;;10.97;;
55316;SDS011;41178;48.956;8.130;2023-10-19T03:36:51;15.63;;;11.00;;
55316;SDS011;41178;48.956;8.130;2023-10-19T03:41:53;13.60;;;9.93;;
55316;SDS011;41178;48.956;8.130;2023-10-19T03:46:55;17.20;;;10.10;;
55316;SDS011;41178;48.956;8.130;2023-10-19T03:52:06;12.77;;;9.73;;
55316;SDS011;41178;48.956;8.130;2023-10-19T03:57:11;13.07;;;9.80;;
55316;SDS011;41178;48.956;8.130;2023-10-19T04:02:14;15.37;;;9.87;;
55316;SDS011;41178;48.956;8.130;2023-10-19T04:07:22;12.70;;;9.53;;
55316;SDS011;41178;48.956;8.130;2023-10-19T04:12:27;13.47;;;10.77;;
55316;SDS011;41178;48.956;8.130;2023-10-19T04:17:32;14.10;;;9.70;;
55316;SDS011;41178;48.956;8.130;2023-10-19T04:22:35;13.83;;;10.10;;
55316;SDS011;41178;48.956;8.130;2023-10-19T04:27:36;14.30;;;9.30;;
55316;SDS011;41178;48.956;8.130;2023-10-19T04:32:38;11.70;;;8.90;;
55316;SDS011;41178;48.956;8.130;2023-10-19T04:37:41;11.00;;;8.83;;
55316;SDS011;41178;48.956;8.130;2023-10-19T04:42:44;14.70;;;9.70;;
55316;SDS011;41178;48.956;8.130;2023-10-19T04:47:50;12.90;;;9.60;;
55316;SDS011;41178;48.956;8.130;2023-10-19T04:52:54;12.60;;;9.50;;
55316;SDS011;41178;48.956;8.130;2023-10-19T04:57:56;12.47;;;9.63;;
55316;SDS011;41178;48.956;8.130;2023-10-19T05:05:12;12.13;;;9.73;;
55316;SDS011;41178;48.956;8.130;2023-10-19T05:10:18;14.17;;;11.00;;
55316;SDS011;41178;48.956;8.130;2023-10-19T05:15:21;12.47;;;9.13;;
55316;SDS011;41178;48.956;8.130;2023-10-19T05:20:22;12.37;;;9.90;;
55316;SDS011;41178;48.956;8.130;2023-10-19T05:25:25;11.03;;;8.97;;
55316;SDS011;41178;48.956;8.130;2023-10-19T05:30:27;11.57;;;9.80;;
55316;SDS011;41178;48.956;8.130;2023-10-19T05:35:29;13.97;;;9.83;;
55316;SDS011;41178;48.956;8.130;2023-10-19T05:40:31;13.10;;;9.67;;
55316;SDS011;41178;48.956;8.130;2023-10-19T05:45:33;12.63;;;9.63;;
55316;SDS011;41178;48.956;8.130;2023-10-19T05:50:39;12.70;;;9.47;;
55316;SDS011;41178;48.956;8.130;2023-10-19T05:55:41;13.87;;;9.73;;
55316;SDS011;41178;48.956;8.130;2023-10-19T06:00:43;13.47;;;9.30;;
55316;SDS011;41178;48.956;8.130;2023-10-19T06:05:44;13.63;;;10.57;;
55316;SDS011;41178;48.956;8.130;2023-10-19T06:10:50;12.13;;;9.83;;
55316;SDS011;41178;48.956;8.130;2023-10-19T06:15:53;13.83;;;10.13;;
55316;SDS011;41178;48.956;8.130;2023-10-19T06:20:55;12.93;;;9.80;;
55316;SDS011;41178;48.956;8.130;2023-10-19T06:25:57;12.37;;;9.40;;
55316;SDS011;41178;48.956;8.130;2023-10-19T06:30:59;9.73;;;8.40;;
55316;SDS011;41178;48.956;8.130;2023-10-19T06:36:00;11.87;;;7.87;;
55316;SDS011;41178;48.956;8.130;2023-10-19T06:41:11;12.53;;;8.60;;
55316;SDS011;41178;48.956;8.130;2023-10-19T06:46:15;15.37;;;10.97;;
55316;SDS011;41178;48.956;8.130;2023-10-19T06:51:17;12.63;;;8.77;;
55316;SDS011;41178;48.956;8.130;2023-10-19T06:56:19;13.00;;;7.93;;
55316;SDS011;41178;48.956;8.130;2023-10-19T07:01:21;20.87;;;8.53;;
55316;SDS011;41178;48.956;8.130;2023-10-19T07:06:27;9.47;;;8.13;;
55316;SDS011;41178;48.956;8.130;2023-10-19T07:11:29;8.93;;;7.87;;
55316;SDS011;41178;48.956;8.130;2023-10-19T07:16:31;9.80;;;8.00;;
55316;SDS011;41178;48.956;8.130;2023-10-19T07:21:32;9.60;;;8.27;;
55316;SDS011;41178;48.956;8.130;2023-10-19T07:26:37;8.87;;;7.70;;
55316;SDS011;41178;48.956;8.130;2023-10-19T07:31:52;13.70;;;9.33;;
55316;SDS011;41178;48.956;8.130;2023-10-19T07:36:57;33.27;;;13.37;;
55316;SDS011;41178;48.956;8.130;2023-10-19T07:42:00;61.33;;;13.83;;
55316;SDS011;41178;48.956;8.130;2023-10-19T07:47:02;14.77;;;9.70;;
55316;SDS011;41178;48.956;8.130;2023-10-19T07:52:04;13.47;;;9.00;;
55316;SDS011;41178;48.956;8.130;2023-10-19T07:57:09;11.07;;;8.40;;
55316;SDS011;41178;48.956;8.130;2023-10-19T08:02:14;11.43;;;8.47;;
55316;SDS011;41178;48.956;8.130;2023-10-19T08:07:15;11.30;;;8.53;;
55316;SDS011;41178;48.956;8.130;2023-10-19T08:12:18;10.10;;;9.00;;
55316;SDS011;41178;48.956;8.130;2023-10-19T08:17:20;10.03;;;8.47;;
55316;SDS011;41178;48.956;8.130;2023-10-19T08:22:22;14.30;;;12.40;;
55316;SDS011;41178;48.956;8.130;2023-10-19T08:27:25;27.37;;;21.57;;
55316;SDS011;41178;48.956;8.130;2023-10-19T08:32:27;21.27;;;15.40;;
55316;SDS011;41178;48.956;8.130;2023-10-19T08:37:28;57.20;;;39.43;;
55316;SDS011;41178;48.956;8.130;2023-10-19T08:42:30;70.17;;;47.40;;
55316;SDS011;41178;48.956;8.130;2023-10-19T08:47:32;24.67;;;19.13;;
55316;SDS011;41178;48.956;8.130;2023-10-19T08:52:34;23.90;;;18.67;;
55316;SDS011;41178;48.956;8.130;2023-10-19T08:57:37;21.47;;;16.07;;
55316;SDS011;41178;48.956;8.130;2023-10-19T09:02:40;32.53;;;26.27;;
55316;SDS011;41178;48.956;8.130;2023-10-19T09:07:41;23.87;;;20.37;;
55316;SDS011;41178;48.956;8.130;2023-10-19T09:12:43;22.43;;;16.17;;
55316;SDS011;41178;48.956;8.130;2023-10-19T09:17:45;31.63;;;23.43;;
55316;SDS011;41178;48.956;8.130;2023-10-19T09:22:47;18.90;;;14.17;;
55316;SDS011;41178;48.956;8.130;2023-10-19T09:27:50;19.40;;;16.20;;
55316;SDS011;41178;48.956;8.130;2023-10-19T09:32:53;20.33;;;13.33;;
55316;SDS011;41178;48.956;8.130;2023-10-19T09:37:57;16.50;;;13.40;;
55316;SDS011;41178;48.956;8.130;2023-10-19T09:42:59;16.63;;;12.30;;
55316;SDS011;41178;48.956;8.130;2023-10-19T09:48:08;15.23;;;11.97;;
55316;SDS011;41178;48.956;8.130;2023-10-19T09:53:10;17.33;;;11.57;;
55316;SDS011;41178;48.956;8.130;2023-10-19T09:58:15;16.57;;;10.90;;
55316;SDS011;41178;48.956;8.130;2023-10-19T10:08:55;13.47;;;10.60;;
55316;SDS011;41178;48.956;8.130;2023-10-19T10:13:58;12.97;;;11.13;;
55316;SDS011;41178;48.956;8.130;2023-10-19T10:19:00;14.10;;;12.03;;
55316;SDS011;41178;48.956;8.130;2023-10-19T10:24:03;15.53;;;10.27;;
55316;SDS011;41178;48.956;8.130;2023-10-19T10:39:39;18.27;;;11.60;;
55316;SDS011;41178;48.956;8.130;2023-10-19T10:44:47;13.47;;;10.10;;
55316;SDS011;41178;48.956;8.130;2023-10-19T10:49:57;13.80;;;10.40;;
55316;SDS011;41178;48.956;8.130;2023-10-19T10:55:15;13.47;;;10.60;;
55316;SDS011;41178;48.956;8.130;2023-10-19T11:06:12;15.17;;;12.23;;
55316;SDS011;41178;48.956;8.130;2023-10-19T11:11:14;16.30;;;12.43;;
55316;SDS011;41178;48.956;8.130;2023-10-19T11:16:21;12.37;;;10.00;;
55316;SDS011;41178;48.956;8.130;2023-10-19T11:21:24;13.93;;;10.77;;
55316;SDS011;41178;48.956;8.130;2023-10-19T11:26:26;14.23;;;10.80;;
55316;SDS011;41178;48.956;8.130;2023-10-19T11:31:28;14.47;;;11.40;;
55316;SDS011;41178;48.956;8.130;2023-10-19T11:36:38;16.20;;;12.23;;
55316;SDS011;41178;48.956;8.130;2023-10-19T11:41:40;15.47;;;11.83;;
55316;SDS011;41178;48.956;8.130;2023-10-19T11:46:42;16.73;;;12.43;;
55316;SDS011;41178;48.956;8.130;2023-10-19T11:51:45;13.93;;;11.23;;
55316;SDS011;41178;48.956;8.130;2023-10-19T11:56:47;17.27;;;11.63;;
55316;SDS011;41178;48.956;8.130;2023-10-19T12:01:50;17.77;;;13.40;;
55316;SDS011;41178;48.956;8.130;2023-10-19T12:06:52;19.43;;;13.70;;
55316;SDS011;41178;48.956;8.130;2023-10-19T12:11:54;19.70;;;13.67;;
55316;SDS011;41178;48.956;8.130;2023-10-19T12:16:57;19.50;;;13.23;;
55316;SDS011;41178;48.956;8.130;2023-10-19T12:22:02;20.73;;;14.20;;
55316;SDS011;41178;48.956;8.130;2023-10-19T12:27:04;19.40;;;13.90;;
55316;SDS011;41178;48.956;8.130;2023-10-19T12:32:06;18.30;;;13.13;;
55316;SDS011;41178;48.956;8.130;2023-10-19T12:37:08;18.53;;;12.17;;
55316;SDS011;41178;48.956;8.130;2023-10-19T12:42:11;17.57;;;12.97;;
55316;SDS011;41178;48.956;8.130;2023-10-19T12:47:13;19.63;;;11.67;;
55316;SDS011;41178;48.956;8.130;2023-10-19T12:52:14;14.30;;;11.53;;
55316;SDS011;41178;48.956;8.130;2023-10-19T12:57:16;14.83;;;10.83;;
55316;SDS011;41178;48.956;8.130;2023-10-19T13:02:20;14.07;;;10.30;;
55316;SDS011;41178;48.956;8.130;2023-10-19T13:07:22;15.37;;;10.97;;
55316;SDS011;41178;48.956;8.130;2023-10-19T13:12:26;13.20;;;10.23;;
55316;SDS011;41178;48.956;8.130;2023-10-19T13:17:28;14.73;;;10.47;;
55316;SDS011;41178;48.956;8.130;2023-10-19T13:22:30;13.17;;;10.17;;
55316;SDS011;41178;48.956;8.130;2023-10-19T13:27:35;13.77;;;10.63;;
55316;SDS011;41178;48.956;8.130;2023-10-19T13:32:37;13.43;;;11.37;;
55316;SDS011;41178;48.956;8.130;2023-10-19T13:37:39;14.53;;;10.40;;
55316;SDS011;41178;48.956;8.130;2023-10-19T13:42:41;15.67;;;11.03;;
55316;SDS011;41178;48.956;8.130;2023-10-19T13:47:48;20.77;;;12.60;;
55316;SDS011;41178;48.956;8.130;2023-10-19T13:52:50;15.30;;;12.57;;
55316;SDS011;41178;48.956;8.130;2023-10-19T13:57:53;17.93;;;13.50;;
55316;SDS011;41178;48.956;8.130;2023-10-19T14:02:57;15.63;;;11.93;;
55316;SDS011;41178;48.956;8.130;2023-10-19T14:08:00;21.23;;;13.43;;
55316;SDS011;41178;48.956;8.130;2023-10-19T14:13:02;17.23;;;12.87;;
55316;SDS011;41178;48.956;8.130;2023-10-19T14:18:06;21.97;;;13.43;;
55316;SDS011;41178;48.956;8.130;2023-10-19T14:23:08;18.73;;;14.70;;
55316;SDS011;41178;48.956;8.130;2023-10-19T14:28:11;23.27;;;14.40;;
55316;SDS011;41178;48.956;8.130;2023-10-19T14:33:13;19.03;;;13.80;;
55316;SDS011;41178;48.956;8.130;2023-10-19T14:38:15;22.67;;;15.03;;
55316;SDS011;41178;48.956;8.130;2023-10-19T14:43:17;25.77;;;16.33;;
55316;SDS011;41178;48.956;8.130;2023-10-19T14:48:18;27.03;;;21.43;;
55316;SDS011;41178;48.956;8.130;2023-10-19T14:53:21;20.17;;;14.90;;
55316;SDS011;41178;48.956;8.130;2023-10-19T14:58:23;29.97;;;20.23;;
55316;SDS011;41178;48.956;8.130;2023-10-19T15:03:27;29.37;;;20.17;;
55316;SDS011;41178;48.956;8.130;2023-10-19T15:08:30;19.17;;;15.77;;
55316;SDS011;41178;48.956;8.130;2023-10-19T15:13:33;17.07;;;12.50;;
55316;SDS011;41178;48.956;8.130;2023-10-19T15:18:35;16.10;;;12.13;;
55316;SDS011;41178;48.956;8.130;2023-10-19T15:23:37;18.47;;;12.20;;
55316;SDS011;41178;48.956;8.130;2023-10-19T15:28:39;18.83;;;12.73;;
55316;SDS011;41178;48.956;8.130;2023-10-19T15:33:40;18.40;;;14.07;;
55316;SDS011;41178;48.956;8.130;2023-10-19T15:38:42;18.63;;;12.90;;
55316;SDS011;41178;48.956;8.130;2023-10-19T15:43:44;16.60;;;12.93;;
55316;SDS011;41178;48.956;8.130;2023-10-19T15:48:46;15.17;;;11.70;;
55316;SDS011;41178;48.956;8.130;2023-10-19T15:53:47;18.60;;;12.40;;
55316;SDS011;41178;48.956;8.130;2023-10-19T15:58:49;16.00;;;11.43;;
55316;SDS011;41178;48.956;8.130;2023-10-19T16:03:51;16.07;;;11.53;;
55316;SDS011;41178;48.956;8.130;2023-10-19T16:08:53;14.70;;;11.43;;
55316;SDS011;41178;48.956;8.130;2023-10-19T16:13:54;15.97;;;10.80;;
55316;SDS011;41178;48.956;8.130;2023-10-19T16:18:56;17.03;;;12.63;;
55316;SDS011;41178;48.956;8.130;2023-10-19T16:23:58;16.23;;;12.73;;
55316;SDS011;41178;48.956;8.130;2023-10-19T16:29:00;19.70;;;13.50;;
55316;SDS011;41178;48.956;8.130;2023-10-19T16:34:06;19.47;;;13.50;;
55316;SDS011;41178;48.956;8.130;2023-10-19T16:39:09;19.47;;;14.53;;
55316;SDS011;41178;48.956;8.130;2023-10-19T16:44:17;18.80;;;14.30;;
55316;SDS011;41178;48.956;8.130;2023-10-19T16:49:19;23.63;;;14.50;;
55316;SDS011;41178;48.956;8.130;2023-10-19T16:54:20;25.57;;;15.93;;
55316;SDS011;41178;48.956;8.130;2023-10-19T16:59:22;20.57;;;14.90;;
55316;SDS011;41178;48.956;8.130;2023-10-19T17:04:24;19.57;;;13.63;;
55316;SDS011;41178;48.956;8.130;2023-10-19T17:09:27;19.47;;;13.13;;
55316;SDS011;41178;48.956;8.130;2023-10-19T17:14:29;21.30;;;14.70;;
55316;SDS011;41178;48.956;8.130;2023-10-19T17:19:31;18.00;;;13.83;;
55316;SDS011;41178;48.956;8.130;2023-10-19T17:24:32;19.23;;;12.67;;
55316;SDS011;41178;48.956;8.130;2023-10-19T17:29:34;20.63;;;15.10;;
55316;SDS011;41178;48.956;8.130;2023-10-19T17:34:36;18.97;;;14.53;;
55316;SDS011;41178;48.956;8.130;2023-10-19T17:39:38;18.97;;;13.77;;
55316;SDS011;41178;48.956;8.130;2023-10-19T17:44:40;21.33;;;14.43;;
55316;SDS011;41178;48.956;8.130;2023-10-19T17:49:41;21.60;;;13.90;;
55316;SDS011;41178;48.956;8.130;2023-10-19T17:54:43;21.00;;;14.23;;
55316;SDS011;41178;48.956;8.130;2023-10-19T17:59:45;18.47;;;13.33;;
55316;SDS011;41178;48.956;8.130;2023-10-19T18:04:47;22.07;;;15.43;;
55316;SDS011;41178;48.956;8.130;2023-10-19T18:09:51;20.73;;;13.63;;
55316;SDS011;41178;48.956;8.130;2023-10-19T18:14:54;20.20;;;12.90;;
55316;SDS011;41178;48.956;8.130;2023-10-19T18:19:56;46.23;;;13.90;;
55316;SDS011;41178;48.956;8.130;2023-10-19T18:24:57;18.37;;;11.80;;
55316;SDS011;41178;48.956;8.130;2023-10-19T18:29:59;96.47;;;16.13;;
55316;SDS011;41178;48.956;8.130;2023-10-19T18:35:01;18.73;;;11.90;;
55316;SDS011;41178;48.956;8.130;2023-10-19T18:40:02;12.37;;;9.23;;
55316;SDS011;41178;48.956;8.130;2023-10-19T18:45:05;23.07;;;8.93;;
55316;SDS011;41178;48.956;8.130;2023-10-19T18:50:07;40.90;;;9.43;;
55316;SDS011;41178;48.956;8.130;2023-10-19T18:55:25;61.37;;;15.53;;
55316;SDS011;41178;48.956;8.130;2023-10-19T19:00:26;56.53;;;14.67;;
55316;SDS011;41178;48.956;8.130;2023-10-19T19:05:28;51.47;;;11.87;;
55316;SDS011;41178;48.956;8.130;2023-10-19T19:10:32;50.73;;;10.70;;
55316;SDS011;41178;48.956;8.130;2023-10-19T19:15:34;14.70;;;8.60;;
55316;SDS011;41178;48.956;8.130;2023-10-19T19:20:40;10.23;;;8.17;;
55316;SDS011;41178;48.956;8.130;2023-10-19T19:25:43;14.47;;;9.83;;
55316;SDS011;41178;48.956;8.130;2023-10-19T19:30:46;68.77;;;13.73;;
55316;SDS011;41178;48.956;8.130;2023-10-19T19:35:48;119.97;;;20.80;;
55316;SDS011;41178;48.956;8.130;2023-10-19T19:40:50;16.47;;;11.53;;
55316;SDS011;41178;48.956;8.130;2023-10-19T19:45:55;35.13;;;9.53;;
55316;SDS011;41178;48.956;8.130;2023-10-19T19:50:57;39.50;;;9.10;;
55316;SDS011;41178;48.956;8.130;2023-10-19T19:55:59;47.87;;;9.13;;
55316;SDS011;41178;48.956;8.130;2023-10-19T20:01:01;29.57;;;9.10;;
55316;SDS011;41178;48.956;8.130;2023-10-19T20:06:03;38.43;;;10.93;;
55316;SDS011;41178;48.956;8.130;2023-10-19T20:11:04;36.50;;;10.73;;
55316;SDS011;41178;48.956;8.130;2023-10-19T20:16:07;67.27;;;12.90;;
55316;SDS011;41178;48.956;8.130;2023-10-19T20:21:09;53.77;;;11.17;;
55316;SDS011;41178;48.956;8.130;2023-10-19T20:26:11;12.53;;;7.83;;
55316;SDS011;41178;48.956;8.130;2023-10-19T20:31:16;12.40;;;8.73;;
55316;SDS011;41178;48.956;8.130;2023-10-19T20:36:17;9.93;;;7.83;;
55316;SDS011;41178;48.956;8.130;2023-10-19T20:41:20;12.00;;;8.43;;
55316;SDS011;41178;48.956;8.130;2023-10-19T20:46:23;13.00;;;9.13;;
55316;SDS011;41178;48.956;8.130;2023-10-19T20:51:24;10.43;;;8.00;;
55316;SDS011;41178;48.956;8.130;2023-10-19T20:56:26;10.73;;;7.80;;
55316;SDS011;41178;48.956;8.130;2023-10-19T21:01:28;9.07;;;7.00;;
55316;SDS011;41178;48.956;8.130;2023-10-19T21:06:30;10.03;;;7.30;;
55316;SDS011;41178;48.956;8.130;2023-10-19T21:11:33;11.83;;;7.07;;
55316;SDS011;41178;48.956;8.130;2023-10-19T21:16:36;13.13;;;9.17;;
55316;SDS011;41178;48.956;8.130;2023-10-19T21:21:38;14.27;;;8.87;;
55316;SDS011;41178;48.956;8.130;2023-10-19T21:26:39;9.60;;;7.20;;
55316;SDS011;41178;48.956;8.130;2023-10-19T21:31:42;10.47;;;7.40;;
55316;SDS011;41178;48.956;8.130;2023-10-19T21:36:45;12.77;;;8.83;;
55316;SDS011;41178;48.956;8.130;2023-10-19T21:41:47;12.50;;;8.10;;
55316;SDS011;41178;48.956;8.130;2023-10-19T21:46:51;15.63;;;9.00;;
55316;SDS011;41178;48.956;8.130;2023-10-19T21:51:52;10.77;;;8.67;;
55316;SDS011;41178;48.956;8.130;2023-10-19T21:56:54;10.07;;;8.27;;
55316;SDS011;41178;48.956;8.130;2023-10-19T22:01:56;22.67;;;12.50;;
55316;SDS011;41178;48.956;8.130;2023-10-19T22:07:01;13.33;;;8.43;;
55316;SDS011;41178;48.956;8.130;2023-10-19T22:12:03;12.63;;;8.00;;
55316;SDS011;41178;48.956;8.130;2023-10-19T22:17:05;11.90;;;8.63;;
55316;SDS011;41178;48.956;8.130;2023-10-19T22:22:07;19.07;;;15.13;;
55316;SDS011;41178;48.956;8.130;2023-10-19T22:27:09;21.53;;;16.40;;
55316;SDS011;41178;48.956;8.130;2023-10-19T22:32:10;15.33;;;10.83;;
55316;SDS011;41178;48.956;8.130;2023-10-19T22:37:12;14.63;;;9.67;;
55316;SDS011;41178;48.956;8.130;2023-10-19T22:42:14;11.83;;;8.60;;
55316;SDS011;41178;48.956;8.130;2023-10-19T22:47:16;10.97;;;8.73;;
55316;SDS011;41178;48.956;8.130;2023-10-19T22:52:18;11.83;;;8.77;;
55316;SDS011;41178;48.956;8.130;2023-10-19T22:57:20;12.17;;;8.83;;
55316;SDS011;41178;48.956;8.130;2023-10-19T23:02:22;10.07;;;7.97;;
55316;SDS011;41178;48.956;8.130;2023-10-19T23:07:23;11.73;;;8.00;;
55316;SDS011;41178;48.956;8.130;2023-10-19T23:12:25;11.13;;;8.07;;
55316;SDS011;41178;48.956;8.130;2023-10-19T23:17:28;13.27;;;8.53;;
55316;SDS011;41178;48.956;8.130;2023-10-19T23:22:33;12.00;;;8.40;;
55316;SDS011;41178;48.956;8.130;2023-10-19T23:27:36;11.03;;;7.90;;
55316;SDS011;41178;48.956;8.130;2023-10-19T23:32:39;9.50;;;7.37;;
55316;SDS011;41178;48.956;8.130;2023-10-19T23:37:41;9.97;;;7.33;;
55316;SDS011;41178;48.956;8.130;2023-10-19T23:42:43;11.13;;;7.27;;
55316;SDS011;41178;48.956;8.130;2023-10-19T23:47:44;9.37;;;7.30;;
55316;SDS011;41178;48.956;8.130;2023-10-19T23:52:46;9.80;;;6.87;;
55316;SDS011;41178;48.956;8.130;2023-10-19T23:57:48;9.23;;;6.87;;
